高雄終端管制區 - 高雄雷達席

SPECI RCKH 270803Z 28009KT 9999 FEW018 SCT045 29/22 Q1010 NOSIG RMK A2983=

站台狀態:Offline
最後更新:2020-10-27 16:00:02